createdAt,value
2022-12-25T00:02:20.347Z,23.88
2022-12-25T00:04:46.763Z,24.03
2022-12-25T00:07:13.229Z,24.12
2022-12-25T00:09:42.681Z,24.17
2022-12-25T00:12:09.174Z,24.28
2022-12-25T00:14:35.678Z,24.26
2022-12-25T00:17:02.148Z,24.47
2022-12-25T00:19:28.580Z,24.45
2022-12-25T00:21:55.017Z,24.51
2022-12-25T00:24:21.458Z,24.46
2022-12-25T00:26:47.903Z,24.47
2022-12-25T00:29:14.368Z,24.56
2022-12-25T00:31:43.947Z,24.63
2022-12-25T00:34:10.421Z,24.62
2022-12-25T00:36:41.700Z,24.72
2022-12-25T00:39:08.738Z,24.67
2022-12-25T00:41:53.570Z,24.73
2022-12-25T00:44:20.118Z,24.66
2022-12-25T00:46:46.557Z,24.70
2022-12-25T00:49:13.645Z,24.70
2022-12-25T00:51:40.278Z,24.81
2022-12-25T00:54:06.877Z,24.75
2022-12-25T00:56:36.135Z,24.80
2022-12-25T00:59:02.595Z,24.83
2022-12-25T01:01:32.167Z,24.89
2022-12-25T01:03:58.775Z,24.85
2022-12-25T01:06:25.390Z,24.83
2022-12-25T01:09:13.478Z,24.76
2022-12-25T01:11:39.888Z,24.80
2022-12-25T01:14:06.442Z,24.86
2022-12-25T01:16:32.915Z,24.91
2022-12-25T01:18:59.342Z,24.81
2022-12-25T01:21:25.923Z,24.81
2022-12-25T01:23:52.580Z,24.79
2022-12-25T01:26:19.608Z,24.76
2022-12-25T01:28:46.039Z,24.74
2022-12-25T01:31:13.862Z,24.79
2022-12-25T01:33:40.938Z,24.74
2022-12-25T01:36:17.367Z,24.75
2022-12-25T01:38:43.959Z,24.67
2022-12-25T01:41:11.829Z,24.64
2022-12-25T01:43:55.720Z,24.57
2022-12-25T01:46:22.230Z,24.50
2022-12-25T01:48:48.726Z,24.46
2022-12-25T01:51:31.730Z,24.47
2022-12-25T01:53:58.333Z,24.33
2022-12-25T01:56:24.739Z,24.45
2022-12-25T01:58:51.854Z,24.32
2022-12-25T02:01:18.376Z,24.31
2022-12-25T02:03:44.949Z,24.30
2022-12-25T02:06:11.478Z,24.27
2022-12-25T02:08:38.049Z,24.12
2022-12-25T02:11:04.557Z,24.21
2022-12-25T02:13:31.098Z,24.11
2022-12-25T02:16:09.682Z,24.14
2022-12-25T02:18:43.189Z,24.19
2022-12-25T02:21:09.921Z,24.25
2022-12-25T02:23:45.693Z,24.14
2022-12-25T02:26:17.006Z,24.19
2022-12-25T02:28:52.686Z,24.14
2022-12-25T02:31:42.542Z,24.20
2022-12-25T02:34:11.918Z,24.13
2022-12-25T02:36:40.545Z,24.16
2022-12-25T02:39:29.102Z,24.09
2022-12-25T02:41:55.680Z,24.19
2022-12-25T02:44:40.588Z,24.12
2022-12-25T02:47:45.456Z,24.20
2022-12-25T02:50:31.020Z,24.23
2022-12-25T02:53:15.911Z,24.15
2022-12-25T02:56:00.910Z,24.23
2022-12-25T02:58:45.801Z,24.19
2022-12-25T03:01:39.886Z,24.21
2022-12-25T03:04:25.486Z,24.32
2022-12-25T03:07:05.937Z,24.51
2022-12-25T03:10:01.813Z,24.75
2022-12-25T03:12:37.362Z,25.17
2022-12-25T03:15:23.029Z,25.62
2022-12-25T03:17:49.435Z,25.97
2022-12-25T03:20:35.989Z,26.20
2022-12-25T03:23:21.100Z,26.47
2022-12-25T03:26:06.228Z,26.74
2022-12-25T03:28:32.661Z,26.95
2022-12-25T03:31:13.574Z,27.20
2022-12-25T03:33:47.157Z,27.49
2022-12-25T03:36:17.394Z,27.79
2022-12-25T03:38:50.241Z,28.03
2022-12-25T03:41:53.919Z,28.28
2022-12-25T03:44:51.003Z,28.56
2022-12-25T03:47:37.341Z,28.83
2022-12-25T03:50:28.731Z,29.00
2022-12-25T03:53:13.783Z,29.23
2022-12-25T03:55:58.986Z,29.40
2022-12-25T03:58:44.527Z,29.63
2022-12-25T04:01:29.589Z,29.70
2022-12-25T04:04:14.933Z,29.16
2022-12-25T04:06:59.778Z,28.69
2022-12-25T04:09:44.762Z,28.12
2022-12-25T04:12:29.660Z,26.89
2022-12-25T04:15:14.764Z,24.93
2022-12-25T04:17:59.684Z,22.59
2022-12-25T04:20:44.588Z,21.07
2022-12-25T04:23:29.815Z,20.13
2022-12-25T04:26:17.769Z,19.61
2022-12-25T04:29:02.679Z,19.33
2022-12-25T04:31:47.860Z,19.18
2022-12-25T04:34:32.827Z,19.15
2022-12-25T04:36:59.227Z,19.11
2022-12-25T04:39:25.685Z,19.07
2022-12-25T04:41:52.074Z,19.03
2022-12-25T04:44:18.504Z,18.97
2022-12-25T04:46:45.164Z,18.79
2022-12-25T04:49:11.628Z,18.53
2022-12-25T04:51:38.160Z,18.27
2022-12-25T04:54:05.066Z,18.07
2022-12-25T04:56:31.497Z,17.87
2022-12-25T04:58:57.888Z,17.72
2022-12-25T05:01:24.581Z,17.63
2022-12-25T05:03:51.172Z,17.57
2022-12-25T05:06:17.742Z,17.61
2022-12-25T05:08:44.261Z,17.60
2022-12-25T05:11:11.713Z,17.60
2022-12-25T05:13:38.245Z,17.56
2022-12-25T05:16:08.496Z,17.60
2022-12-25T05:18:35.068Z,17.60
2022-12-25T05:21:01.564Z,17.58
2022-12-25T05:23:27.976Z,17.56
2022-12-25T05:25:54.500Z,17.56
2022-12-25T05:28:21.140Z,17.55
2022-12-25T05:30:47.563Z,17.55
2022-12-25T05:33:14.055Z,17.56
2022-12-25T05:35:40.459Z,17.53
2022-12-25T05:38:07.010Z,17.52
2022-12-25T05:40:33.581Z,17.52
2022-12-25T05:43:00.037Z,17.51
2022-12-25T05:45:26.508Z,17.51
2022-12-25T05:47:53.032Z,17.49
2022-12-25T05:50:19.448Z,17.49
2022-12-25T05:52:45.917Z,17.48
2022-12-25T05:55:12.346Z,17.46
2022-12-25T05:57:38.763Z,17.46
2022-12-25T06:00:05.820Z,17.45
2022-12-25T06:02:32.355Z,17.42
2022-12-25T06:04:58.879Z,17.42
2022-12-25T06:07:25.269Z,17.41
2022-12-25T06:09:51.717Z,17.38
2022-12-25T06:12:18.147Z,17.37
2022-12-25T06:14:44.557Z,17.34
2022-12-25T06:17:10.988Z,17.37
2022-12-25T06:19:37.534Z,17.37
2022-12-25T06:22:03.952Z,17.33
2022-12-25T06:24:30.496Z,17.33
2022-12-25T06:26:56.891Z,17.34
2022-12-25T06:29:23.291Z,17.33
2022-12-25T06:31:49.751Z,17.30
2022-12-25T06:34:16.583Z,17.31
2022-12-25T06:36:43.353Z,17.30
2022-12-25T06:39:09.785Z,17.29
2022-12-25T06:41:36.180Z,17.26
2022-12-25T06:44:02.639Z,17.25
2022-12-25T06:46:30.006Z,17.24
2022-12-25T06:48:57.231Z,17.21
2022-12-25T06:51:24.089Z,17.19
2022-12-25T06:53:50.663Z,17.21
2022-12-25T06:56:17.972Z,17.21
2022-12-25T06:58:44.904Z,17.19
2022-12-25T07:01:15.475Z,17.17
2022-12-25T07:03:42.514Z,17.14
2022-12-25T07:06:08.961Z,17.15
2022-12-25T07:08:35.381Z,17.12
2022-12-25T07:11:01.877Z,17.13
2022-12-25T07:13:30.860Z,17.11
2022-12-25T07:15:57.785Z,17.09
2022-12-25T07:18:24.326Z,17.09
2022-12-25T07:20:50.836Z,17.07
2022-12-25T07:23:17.278Z,17.06
2022-12-25T07:25:43.690Z,17.03
2022-12-25T07:28:10.393Z,17.05
2022-12-25T07:30:37.496Z,17.06
2022-12-25T07:33:03.988Z,17.05
2022-12-25T07:35:30.404Z,17.05
2022-12-25T07:37:56.814Z,17.05
2022-12-25T07:40:23.449Z,17.02
2022-12-25T07:42:49.875Z,17.05
2022-12-25T07:45:16.566Z,17.02
2022-12-25T07:47:43.248Z,17.04
2022-12-25T07:50:09.871Z,17.04
2022-12-25T07:52:43.083Z,17.02
2022-12-25T07:55:10.056Z,17.04
2022-12-25T07:57:36.744Z,17.01
2022-12-25T08:00:06.617Z,17.01
2022-12-25T08:02:33.565Z,17.00
2022-12-25T08:05:00.190Z,16.99
2022-12-25T08:07:27.313Z,16.98
2022-12-25T08:09:53.731Z,16.98
2022-12-25T08:12:20.110Z,16.97
2022-12-25T08:14:46.512Z,16.96
2022-12-25T08:17:13.054Z,16.96
2022-12-25T08:19:39.493Z,16.95
2022-12-25T08:22:06.188Z,16.92
2022-12-25T08:24:32.620Z,16.94
2022-12-25T08:26:59.011Z,16.95
2022-12-25T08:29:25.524Z,16.95
2022-12-25T08:31:52.212Z,16.95
2022-12-25T08:34:19.346Z,16.95
2022-12-25T08:36:45.827Z,16.96
2022-12-25T08:39:14.739Z,16.96
2022-12-25T08:41:41.143Z,16.93
2022-12-25T08:44:07.711Z,16.93
2022-12-25T08:46:34.242Z,16.94
2022-12-25T08:49:00.728Z,16.95
2022-12-25T08:51:27.396Z,16.94
2022-12-25T08:53:53.865Z,16.96
2022-12-25T08:56:20.452Z,16.96
2022-12-25T08:58:49.245Z,16.95
2022-12-25T09:01:15.721Z,17.02
2022-12-25T09:03:43.050Z,17.30
2022-12-25T09:06:10.806Z,17.80
2022-12-25T09:08:41.035Z,18.26
2022-12-25T09:11:13.582Z,18.76
2022-12-25T09:13:40.059Z,19.51
2022-12-25T09:16:07.311Z,20.24
2022-12-25T09:18:33.859Z,20.96
2022-12-25T09:21:04.518Z,21.60
2022-12-25T09:23:31.065Z,22.15
2022-12-25T09:26:00.827Z,22.55
2022-12-25T09:28:27.284Z,22.95
2022-12-25T09:30:53.758Z,23.15
2022-12-25T09:33:20.472Z,23.37
2022-12-25T09:35:55.990Z,23.29
2022-12-25T09:38:22.585Z,23.40
2022-12-25T09:40:49.017Z,23.33
2022-12-25T09:43:16.521Z,23.20
2022-12-25T09:45:42.951Z,22.92
2022-12-25T09:48:10.403Z,22.82
2022-12-25T09:50:53.333Z,22.64
2022-12-25T09:53:22.043Z,22.49
2022-12-25T09:56:08.728Z,22.02
2022-12-25T09:58:35.134Z,22.15
2022-12-25T10:01:19.570Z,22.11
2022-12-25T10:04:01.908Z,22.07
2022-12-25T10:06:40.496Z,21.72
2022-12-25T10:09:13.593Z,21.49
2022-12-25T10:11:52.047Z,21.13
2022-12-25T10:14:37.370Z,20.70
2022-12-25T10:17:13.135Z,20.44
2022-12-25T10:19:48.210Z,20.00
2022-12-25T10:22:16.260Z,19.68
2022-12-25T10:24:44.193Z,19.46
2022-12-25T10:27:23.963Z,19.34
2022-12-25T10:29:52.731Z,19.24
2022-12-25T10:32:19.159Z,19.18
2022-12-25T10:34:45.631Z,19.17
2022-12-25T10:37:12.288Z,19.20
2022-12-25T10:39:45.832Z,19.32
2022-12-25T10:42:34.066Z,19.39
2022-12-25T10:45:01.383Z,19.54
2022-12-25T10:47:34.857Z,19.74
2022-12-25T10:50:01.534Z,20.02
2022-12-25T10:52:28.876Z,20.29
2022-12-25T10:54:55.399Z,20.57
2022-12-25T10:57:22.544Z,20.81
2022-12-25T10:59:49.729Z,21.09
2022-12-25T11:02:16.271Z,21.31
2022-12-25T11:04:42.856Z,21.53
2022-12-25T11:07:20.962Z,21.71
2022-12-25T11:10:02.657Z,21.88
2022-12-25T11:12:42.032Z,22.04
2022-12-25T11:15:27.405Z,22.17
2022-12-25T11:17:53.905Z,22.18
2022-12-25T11:20:20.397Z,22.26
2022-12-25T11:22:48.520Z,22.29
2022-12-25T11:25:15.247Z,22.38
2022-12-25T11:27:42.942Z,22.48
2022-12-25T11:30:15.848Z,22.57
2022-12-25T11:32:46.398Z,22.63
2022-12-25T11:35:15.607Z,22.70
2022-12-25T11:37:43.609Z,22.79
2022-12-25T11:40:30.386Z,22.77
2022-12-25T11:43:13.758Z,22.78
2022-12-25T11:45:51.518Z,22.73
2022-12-25T11:48:25.336Z,22.69
2022-12-25T11:50:52.959Z,22.66
2022-12-25T11:53:25.279Z,22.66
2022-12-25T11:55:55.027Z,22.69
2022-12-25T11:58:21.442Z,22.76
2022-12-25T12:00:48.001Z,22.81
2022-12-25T12:03:16.522Z,22.88
2022-12-25T12:05:43.112Z,22.99
2022-12-25T12:08:09.873Z,23.11
2022-12-25T12:10:36.411Z,23.29
2022-12-25T12:13:14.371Z,23.49
2022-12-25T12:15:44.433Z,23.71
2022-12-25T12:18:26.179Z,23.89
2022-12-25T12:21:02.047Z,24.06
2022-12-25T12:23:29.053Z,24.24
2022-12-25T12:25:55.477Z,24.43
2022-12-25T12:28:25.926Z,24.59
2022-12-25T12:31:06.081Z,24.75
2022-12-25T12:33:36.918Z,24.89
2022-12-25T12:36:03.401Z,25.09
2022-12-25T12:38:29.861Z,25.32
2022-12-25T12:40:57.543Z,25.55
2022-12-25T12:43:23.920Z,25.78
2022-12-25T12:45:54.544Z,26.03
2022-12-25T12:48:27.662Z,26.18
2022-12-25T12:51:04.292Z,26.25
2022-12-25T12:53:31.076Z,26.35
2022-12-25T12:55:58.780Z,26.46
2022-12-25T12:58:27.774Z,26.56
2022-12-25T13:01:08.398Z,26.70
2022-12-25T13:03:34.955Z,26.85
2022-12-25T13:06:02.613Z,26.99
2022-12-25T13:08:41.015Z,27.14
2022-12-25T13:11:20.578Z,27.31
2022-12-25T13:13:47.273Z,27.49
2022-12-25T13:16:19.379Z,27.63
2022-12-25T13:18:45.819Z,27.77
2022-12-25T13:21:14.835Z,27.92
2022-12-25T13:23:41.327Z,28.10
2022-12-25T13:26:17.214Z,28.23
2022-12-25T13:28:45.454Z,28.37
2022-12-25T13:31:17.923Z,28.45
2022-12-25T13:33:49.386Z,28.60
2022-12-25T13:36:15.861Z,28.65
2022-12-25T13:38:45.649Z,28.82
2022-12-25T13:41:34.297Z,28.86
2022-12-25T13:44:00.779Z,28.94
2022-12-25T13:46:27.332Z,29.01
2022-12-25T13:49:00.576Z,29.11
2022-12-25T13:51:27.719Z,29.21
2022-12-25T13:54:04.080Z,29.27
2022-12-25T13:56:33.550Z,29.36
2022-12-25T13:59:00.096Z,29.41
2022-12-25T14:01:26.571Z,29.51
2022-12-25T14:03:53.101Z,29.61
2022-12-25T14:06:26.280Z,29.69
2022-12-25T14:08:55.383Z,29.73
2022-12-25T14:11:22.599Z,29.84
2022-12-25T14:13:49.689Z,29.94
2022-12-25T14:16:17.054Z,30.06
2022-12-25T14:19:12.700Z,30.07
2022-12-25T14:21:40.955Z,30.23
2022-12-25T14:24:12.846Z,30.32
2022-12-25T14:26:39.256Z,30.44
2022-12-25T14:29:05.632Z,30.60
2022-12-25T14:31:32.195Z,30.72
2022-12-25T14:33:58.963Z,30.86
2022-12-25T14:36:25.394Z,30.92
2022-12-25T14:38:58.737Z,30.98
2022-12-25T14:41:34.852Z,31.16
2022-12-25T14:44:01.919Z,31.20
2022-12-25T14:46:29.461Z,31.40
2022-12-25T14:48:59.586Z,31.45
2022-12-25T14:51:26.016Z,31.47
2022-12-25T14:53:53.649Z,31.72
2022-12-25T14:56:20.406Z,31.91
2022-12-25T14:58:47.504Z,31.73
2022-12-25T15:01:18.978Z,32.04
2022-12-25T15:03:45.660Z,32.06
2022-12-25T15:06:20.709Z,32.27
2022-12-25T15:09:02.121Z,32.21
2022-12-25T15:11:28.676Z,32.33
2022-12-25T15:13:55.183Z,32.41
2022-12-25T15:16:25.168Z,32.41
2022-12-25T15:18:51.871Z,32.72
2022-12-25T15:21:30.687Z,32.63
2022-12-25T15:23:57.521Z,32.53
2022-12-25T15:26:24.427Z,32.74
2022-12-25T15:28:51.004Z,32.93
2022-12-25T15:31:27.783Z,33.03
2022-12-25T15:33:54.669Z,33.02
2022-12-25T15:36:21.297Z,33.09
2022-12-25T15:38:47.715Z,33.08
2022-12-25T15:41:34.690Z,33.20
2022-12-25T15:44:01.104Z,33.44
2022-12-25T15:46:27.612Z,33.48
2022-12-25T15:48:54.055Z,33.47
2022-12-25T15:51:20.451Z,33.41
2022-12-25T15:53:49.544Z,33.49
2022-12-25T15:56:17.175Z,33.49
2022-12-25T15:58:43.630Z,33.65
2022-12-25T16:01:14.348Z,33.76
2022-12-25T16:03:41.162Z,33.83
2022-12-25T16:06:11.604Z,33.63
2022-12-25T16:08:37.998Z,33.76
2022-12-25T16:11:04.514Z,33.79
2022-12-25T16:13:30.943Z,33.82
2022-12-25T16:15:57.585Z,33.94
2022-12-25T16:18:24.200Z,34.20
2022-12-25T16:20:53.910Z,34.04
2022-12-25T16:23:20.683Z,34.13
2022-12-25T16:25:47.117Z,34.05
2022-12-25T16:28:13.599Z,34.22
2022-12-25T16:30:40.225Z,34.21
2022-12-25T16:33:06.876Z,34.24
2022-12-25T16:35:33.460Z,34.27
2022-12-25T16:37:59.895Z,34.34
2022-12-25T16:40:26.560Z,34.27
2022-12-25T16:42:54.808Z,34.37
2022-12-25T16:45:21.291Z,34.28
2022-12-25T16:47:47.785Z,34.38
2022-12-25T16:50:14.261Z,34.30
2022-12-25T16:52:40.680Z,34.29
2022-12-25T16:55:07.229Z,34.35
2022-12-25T16:57:33.608Z,34.40
2022-12-25T17:00:00.100Z,34.50
2022-12-25T17:02:26.624Z,34.52
2022-12-25T17:04:53.184Z,34.55
2022-12-25T17:07:19.738Z,34.66
2022-12-25T17:09:49.353Z,34.56
2022-12-25T17:12:16.016Z,34.58
2022-12-25T17:14:42.485Z,34.64
2022-12-25T17:17:08.896Z,34.52
2022-12-25T17:19:35.355Z,34.57
2022-12-25T17:22:01.768Z,34.58
2022-12-25T17:24:28.843Z,34.52
2022-12-25T17:26:55.454Z,34.62
2022-12-25T17:29:22.966Z,34.60
2022-12-25T17:31:49.672Z,34.65
2022-12-25T17:34:16.880Z,34.79
2022-12-25T17:36:43.287Z,34.64
2022-12-25T17:39:09.739Z,34.71
2022-12-25T17:41:36.191Z,34.75
2022-12-25T17:44:02.693Z,34.63
2022-12-25T17:46:29.559Z,34.64
2022-12-25T17:48:56.417Z,34.83
2022-12-25T17:51:23.414Z,34.79
2022-12-25T17:53:50.992Z,34.77
2022-12-25T17:56:17.931Z,34.82
2022-12-25T17:58:44.494Z,34.78
2022-12-25T18:01:14.214Z,34.83
2022-12-25T18:03:40.993Z,34.86
2022-12-25T18:06:08.377Z,34.77
2022-12-25T18:08:39.333Z,34.91
2022-12-25T18:11:10.160Z,34.90
2022-12-25T18:13:37.173Z,34.92
2022-12-25T18:16:04.236Z,34.99
2022-12-25T18:18:30.908Z,34.75
2022-12-25T18:20:57.445Z,34.84
2022-12-25T18:23:23.984Z,34.86
2022-12-25T18:25:50.397Z,34.88
2022-12-25T18:28:16.872Z,34.80
2022-12-25T18:30:43.725Z,34.83
2022-12-25T18:33:12.754Z,34.70
2022-12-25T18:35:39.694Z,34.85
2022-12-25T18:38:06.336Z,34.71
2022-12-25T18:40:32.886Z,34.78
2022-12-25T18:43:03.270Z,34.91
2022-12-25T18:45:30.239Z,34.94
2022-12-25T18:47:56.682Z,34.85
2022-12-25T18:50:23.147Z,34.96
2022-12-25T18:52:51.609Z,35.08
2022-12-25T18:55:18.605Z,34.89
2022-12-25T18:57:45.020Z,34.97
2022-12-25T19:00:11.530Z,35.03
2022-12-25T19:02:38.109Z,35.03
2022-12-25T19:05:05.689Z,34.92
2022-12-25T19:07:32.139Z,34.96
2022-12-25T19:09:58.561Z,35.01
2022-12-25T19:12:24.978Z,35.08
2022-12-25T19:14:51.580Z,35.01
2022-12-25T19:17:18.010Z,35.06
2022-12-25T19:19:44.472Z,34.96
2022-12-25T19:22:10.929Z,35.01
2022-12-25T19:24:37.376Z,35.04
2022-12-25T19:27:03.888Z,35.02
2022-12-25T19:29:30.369Z,35.06
2022-12-25T19:31:57.041Z,34.96
2022-12-25T19:34:23.873Z,34.97
2022-12-25T19:36:50.392Z,35.02
2022-12-25T19:39:16.908Z,34.98
2022-12-25T19:41:44.460Z,34.92
2022-12-25T19:44:10.898Z,35.07
2022-12-25T19:46:40.476Z,34.98
2022-12-25T19:49:07.928Z,34.94
2022-12-25T19:51:38.053Z,34.94
2022-12-25T19:54:04.844Z,34.94
2022-12-25T19:56:31.399Z,34.99
2022-12-25T19:58:57.841Z,35.03
2022-12-25T20:01:25.041Z,34.83
2022-12-25T20:03:51.578Z,35.00
2022-12-25T20:06:26.270Z,34.86
2022-12-25T20:08:53.557Z,34.94
2022-12-25T20:11:20.427Z,34.95
2022-12-25T20:13:48.825Z,34.90
2022-12-25T20:16:15.357Z,35.01
2022-12-25T20:18:41.873Z,35.03
2022-12-25T20:21:10.549Z,34.92
2022-12-25T20:23:37.151Z,34.88
2022-12-25T20:26:04.962Z,35.20
2022-12-25T20:28:31.907Z,34.93
2022-12-25T20:30:58.520Z,34.85
2022-12-25T20:33:24.935Z,34.91
2022-12-25T20:35:51.377Z,34.90
2022-12-25T20:38:17.909Z,35.06
2022-12-25T20:41:24.437Z,35.06
2022-12-25T20:43:30.899Z,35.09
2022-12-25T20:45:57.391Z,35.05
2022-12-25T20:48:23.892Z,34.92
2022-12-25T20:50:50.388Z,35.12
2022-12-25T20:53:16.924Z,35.10
2022-12-25T20:55:46.730Z,35.09
2022-12-25T20:58:16.560Z,35.12
2022-12-25T21:00:43.504Z,35.16
2022-12-25T21:03:10.266Z,35.13
2022-12-25T21:05:36.915Z,35.05
2022-12-25T21:08:03.348Z,35.11
2022-12-25T21:10:29.757Z,35.04
2022-12-25T21:12:56.214Z,35.22
2022-12-25T21:15:23.614Z,35.04
2022-12-25T21:17:50.154Z,35.10
2022-12-25T21:20:16.572Z,35.22
2022-12-25T21:22:43.016Z,35.17
2022-12-25T21:25:09.592Z,35.11
2022-12-25T21:27:35.998Z,35.13
2022-12-25T21:30:15.356Z,35.17
2022-12-25T21:33:01.055Z,35.18
2022-12-25T21:35:27.536Z,35.16
2022-12-25T21:37:54.035Z,35.16
2022-12-25T21:40:20.452Z,35.13
2022-12-25T21:42:46.882Z,35.18
2022-12-25T21:45:13.346Z,35.20
2022-12-25T21:48:01.434Z,35.15
2022-12-25T21:50:44.860Z,35.15
2022-12-25T21:53:17.426Z,35.41
2022-12-25T21:55:49.926Z,35.30
2022-12-25T21:58:16.457Z,35.17
2022-12-25T22:00:42.873Z,35.23
2022-12-25T22:03:09.424Z,35.08
2022-12-25T22:05:55.099Z,35.05
2022-12-25T22:08:21.536Z,35.12
2022-12-25T22:10:47.927Z,35.28
2022-12-25T22:13:32.893Z,35.23
2022-12-25T22:16:24.159Z,35.10
2022-12-25T22:19:09.401Z,35.08
2022-12-25T22:21:37.069Z,35.11
2022-12-25T22:24:07.099Z,35.03
2022-12-25T22:26:34.075Z,35.03
2022-12-25T22:29:00.492Z,35.03
2022-12-25T22:31:26.976Z,35.11
2022-12-25T22:33:54.333Z,35.10
2022-12-25T22:36:20.767Z,35.02
2022-12-25T22:38:47.187Z,35.08
2022-12-25T22:41:13.605Z,35.00
2022-12-25T22:44:15.307Z,35.01
2022-12-25T22:46:27.086Z,35.06
2022-12-25T22:48:53.630Z,34.93
2022-12-25T22:51:20.076Z,35.00
2022-12-25T22:53:46.503Z,34.98
2022-12-25T22:56:12.908Z,35.12
2022-12-25T22:58:42.099Z,35.00
2022-12-25T23:01:09.318Z,34.98
2022-12-25T23:03:35.800Z,34.99
2022-12-25T23:06:02.625Z,34.93
2022-12-25T23:08:31.513Z,34.98
2022-12-25T23:11:02.268Z,35.14
2022-12-25T23:13:47.407Z,35.01
2022-12-25T23:16:14.285Z,34.98
2022-12-25T23:18:59.380Z,35.00
2022-12-25T23:21:44.636Z,35.07
2022-12-25T23:24:29.490Z,35.08
2022-12-25T23:26:55.885Z,34.97
2022-12-25T23:29:37.619Z,35.07
2022-12-25T23:32:04.560Z,35.00
2022-12-25T23:34:31.128Z,35.08
2022-12-25T23:36:57.841Z,35.05
2022-12-25T23:39:24.339Z,35.08
2022-12-25T23:41:50.714Z,35.17
2022-12-25T23:44:17.187Z,35.13
2022-12-25T23:46:52.839Z,35.08
2022-12-25T23:49:20.378Z,35.06
2022-12-25T23:51:46.955Z,35.09
2022-12-25T23:54:14.451Z,35.10
2022-12-25T23:56:40.876Z,35.06
2022-12-25T23:59:07.369Z,35.07
